Terminal Aerodrome Forecast
Issued by NWS

Home | Current Version | Previous Version | Text Only | Print | Product List | Glossary On
Versions: 1 2 3 4 5 6 7 8 9 10 11 12 13
000
FTUS41 KBTV 301137
TAFMPV
TAF
KMPV 301137Z 3012/3112 18007KT P6SM SCT100 BKN150
     FM301400 18012G22KT P6SM BKN080 BKN120
     FM302100 19012G22KT P6SM VCSH BKN060
     FM302300 20012G20KT P6SM -SHRA VCTS SCT025CB OVC050
     FM310300 25012KT P6SM -SHRA BKN025 OVC040
     FM310600 27012KT P6SM -RA BKN020 OVC035
     FM310900 31010KT 5SM -RA BR OVC015=

USA.gov is the U.S. government's official web portal to all federal, state and local government web resources and services.